sensor_id;sensor_type;location;lat;lon;timestamp;noise_LAeq;noise_LA_min;noise_LA_max;noise_LA01;noise_LA95
72805;Laerm;60920;48.748;19.142;2023-04-06T00:01:51;29.14;26.42;39.88;;
72805;Laerm;60920;48.748;19.142;2023-04-06T00:04:17;28.22;26.10;34.12;;
72805;Laerm;60920;48.748;19.142;2023-04-06T00:06:42;28.43;26.53;36.71;;
72805;Laerm;60920;48.748;19.142;2023-04-06T00:09:10;30.36;26.46;39.55;;
72805;Laerm;60920;48.748;19.142;2023-04-06T00:11:36;31.19;26.28;40.51;;
72805;Laerm;60920;48.748;19.142;2023-04-06T00:14:01;27.79;26.15;30.91;;
72805;Laerm;60920;48.748;19.142;2023-04-06T00:16:27;30.65;26.59;41.29;;
72805;Laerm;60920;48.748;19.142;2023-04-06T00:18:53;28.81;26.36;36.75;;
72805;Laerm;60920;48.748;19.142;2023-04-06T00:21:18;29.35;26.32;37.96;;
72805;Laerm;60920;48.748;19.142;2023-04-06T00:23:43;28.90;26.40;38.70;;
72805;Laerm;60920;48.748;19.142;2023-04-06T00:26:09;28.79;26.31;35.89;;
72805;Laerm;60920;48.748;19.142;2023-04-06T00:28:36;30.08;26.36;40.63;;
72805;Laerm;60920;48.748;19.142;2023-04-06T00:31:02;29.15;26.28;35.02;;
72805;Laerm;60920;48.748;19.142;2023-04-06T00:33:27;28.29;26.28;33.06;;
72805;Laerm;60920;48.748;19.142;2023-04-06T00:35:53;27.77;26.13;32.35;;
72805;Laerm;60920;48.748;19.142;2023-04-06T00:38:18;28.39;25.95;33.58;;
72805;Laerm;60920;48.748;19.142;2023-04-06T00:40:44;29.09;26.09;39.40;;
72805;Laerm;60920;48.748;19.142;2023-04-06T00:43:13;27.69;26.14;35.09;;
72805;Laerm;60920;48.748;19.142;2023-04-06T00:45:39;27.60;26.08;30.91;;
72805;Laerm;60920;48.748;19.142;2023-04-06T00:48:05;28.94;26.20;35.78;;
72805;Laerm;60920;48.748;19.142;2023-04-06T00:50:31;28.33;26.28;35.20;;
72805;Laerm;60920;48.748;19.142;2023-04-06T00:52:56;28.12;25.98;34.19;;
72805;Laerm;60920;48.748;19.142;2023-04-06T00:55:22;27.80;26.23;30.90;;
72805;Laerm;60920;48.748;19.142;2023-04-06T00:57:47;28.01;26.32;34.85;;
72805;Laerm;60920;48.748;19.142;2023-04-06T01:00:15;29.61;26.19;38.06;;
72805;Laerm;60920;48.748;19.142;2023-04-06T01:02:41;28.59;26.19;38.81;;
72805;Laerm;60920;48.748;19.142;2023-04-06T01:05:07;28.42;26.14;36.21;;
72805;Laerm;60920;48.748;19.142;2023-04-06T01:07:32;28.57;26.09;36.80;;
72805;Laerm;60920;48.748;19.142;2023-04-06T01:09:58;29.13;26.35;39.11;;
72805;Laerm;60920;48.748;19.142;2023-04-06T01:12:23;28.10;26.02;35.44;;
72805;Laerm;60920;48.748;19.142;2023-04-06T01:14:49;29.69;26.07;41.04;;
72805;Laerm;60920;48.748;19.142;2023-04-06T01:17:15;30.71;26.33;45.48;;
72805;Laerm;60920;48.748;19.142;2023-04-06T01:19:40;28.79;26.25;39.29;;
72805;Laerm;60920;48.748;19.142;2023-04-06T01:22:06;30.21;26.22;43.67;;
72805;Laerm;60920;48.748;19.142;2023-04-06T01:24:32;30.52;26.60;40.48;;
72805;Laerm;60920;48.748;19.142;2023-04-06T01:26:58;28.23;26.19;33.88;;
72805;Laerm;60920;48.748;19.142;2023-04-06T01:29:23;29.45;26.60;38.22;;
72805;Laerm;60920;48.748;19.142;2023-04-06T01:31:49;28.33;26.29;32.45;;
72805;Laerm;60920;48.748;19.142;2023-04-06T01:34:15;29.40;26.39;36.83;;
72805;Laerm;60920;48.748;19.142;2023-04-06T01:36:40;28.62;26.35;34.36;;
72805;Laerm;60920;48.748;19.142;2023-04-06T01:39:08;30.87;26.62;40.19;;
72805;Laerm;60920;48.748;19.142;2023-04-06T01:41:34;30.35;26.82;38.43;;
72805;Laerm;60920;48.748;19.142;2023-04-06T01:43:59;27.80;26.46;32.27;;
72805;Laerm;60920;48.748;19.142;2023-04-06T01:46:25;28.97;26.27;38.27;;
72805;Laerm;60920;48.748;19.142;2023-04-06T01:48:59;27.89;26.26;31.59;;
72805;Laerm;60920;48.748;19.142;2023-04-06T01:51:25;29.26;26.56;39.81;;
72805;Laerm;60920;48.748;19.142;2023-04-06T01:53:57;30.13;26.70;39.33;;
72805;Laerm;60920;48.748;19.142;2023-04-06T01:56:22;29.00;26.70;35.66;;
72805;Laerm;60920;48.748;19.142;2023-04-06T01:58:48;31.29;26.90;41.27;;
72805;Laerm;60920;48.748;19.142;2023-04-06T02:01:13;28.83;26.41;33.44;;
72805;Laerm;60920;48.748;19.142;2023-04-06T02:03:39;28.74;26.34;35.22;;
72805;Laerm;60920;48.748;19.142;2023-04-06T02:06:05;30.17;26.65;43.12;;
72805;Laerm;60920;48.748;19.142;2023-04-06T02:08:31;29.79;26.46;39.61;;
72805;Laerm;60920;48.748;19.142;2023-04-06T02:10:56;28.35;26.76;32.11;;
72805;Laerm;60920;48.748;19.142;2023-04-06T02:13:22;30.04;26.37;46.40;;
72805;Laerm;60920;48.748;19.142;2023-04-06T02:15:47;29.74;27.07;34.59;;
72805;Laerm;60920;48.748;19.142;2023-04-06T02:18:13;29.93;26.91;36.81;;
72805;Laerm;60920;48.748;19.142;2023-04-06T02:20:38;29.20;26.54;34.80;;
72805;Laerm;60920;48.748;19.142;2023-04-06T02:23:03;29.94;26.92;37.15;;
72805;Laerm;60920;48.748;19.142;2023-04-06T02:25:42;30.59;27.29;37.88;;
72805;Laerm;60920;48.748;19.142;2023-04-06T02:28:08;28.76;26.74;32.86;;
72805;Laerm;60920;48.748;19.142;2023-04-06T02:30:33;30.46;27.46;36.33;;
72805;Laerm;60920;48.748;19.142;2023-04-06T02:33:00;30.24;27.10;37.87;;
72805;Laerm;60920;48.748;19.142;2023-04-06T02:35:25;30.09;27.21;38.91;;
72805;Laerm;60920;48.748;19.142;2023-04-06T02:37:51;29.68;26.94;35.84;;
72805;Laerm;60920;48.748;19.142;2023-04-06T02:40:16;31.49;27.62;41.27;;
72805;Laerm;60920;48.748;19.142;2023-04-06T02:42:42;31.35;27.21;40.46;;
72805;Laerm;60920;48.748;19.142;2023-04-06T02:45:07;30.79;27.05;37.91;;
72805;Laerm;60920;48.748;19.142;2023-04-06T02:47:33;31.46;27.59;38.53;;
72805;Laerm;60920;48.748;19.142;2023-04-06T02:50:01;29.76;27.26;35.24;;
72805;Laerm;60920;48.748;19.142;2023-04-06T02:52:27;29.53;27.13;34.23;;
72805;Laerm;60920;48.748;19.142;2023-04-06T02:54:52;31.36;27.57;40.45;;
72805;Laerm;60920;48.748;19.142;2023-04-06T02:57:17;32.77;27.48;43.88;;
72805;Laerm;60920;48.748;19.142;2023-04-06T02:59:43;30.66;27.49;37.56;;
72805;Laerm;60920;48.748;19.142;2023-04-06T03:02:08;31.61;27.59;40.83;;
72805;Laerm;60920;48.748;19.142;2023-04-06T03:04:34;32.10;27.16;38.35;;
72805;Laerm;60920;48.748;19.142;2023-04-06T03:06:59;31.95;27.94;41.07;;
72805;Laerm;60920;48.748;19.142;2023-04-06T03:09:25;31.17;27.42;37.63;;
72805;Laerm;60920;48.748;19.142;2023-04-06T03:11:51;31.24;27.82;38.49;;
72805;Laerm;60920;48.748;19.142;2023-04-06T03:14:16;33.56;27.88;43.45;;
72805;Laerm;60920;48.748;19.142;2023-04-06T03:16:46;33.60;29.15;41.43;;
72805;Laerm;60920;48.748;19.142;2023-04-06T03:19:12;35.20;28.57;49.68;;
72805;Laerm;60920;48.748;19.142;2023-04-06T03:21:37;33.19;29.34;39.56;;
72805;Laerm;60920;48.748;19.142;2023-04-06T03:24:03;33.75;29.82;39.29;;
72805;Laerm;60920;48.748;19.142;2023-04-06T03:26:29;33.67;28.94;40.88;;
72805;Laerm;60920;48.748;19.142;2023-04-06T03:28:54;34.22;29.37;40.56;;
72805;Laerm;60920;48.748;19.142;2023-04-06T03:31:20;33.06;28.79;46.05;;
72805;Laerm;60920;48.748;19.142;2023-04-06T03:33:45;37.30;29.26;50.58;;
72805;Laerm;60920;48.748;19.142;2023-04-06T03:36:11;36.81;30.29;50.91;;
72805;Laerm;60920;48.748;19.142;2023-04-06T03:38:36;33.46;29.05;41.06;;
72805;Laerm;60920;48.748;19.142;2023-04-06T03:41:04;34.13;30.01;43.11;;
72805;Laerm;60920;48.748;19.142;2023-04-06T03:43:29;34.30;29.32;43.06;;
72805;Laerm;60920;48.748;19.142;2023-04-06T03:45:55;34.11;29.19;45.08;;
72805;Laerm;60920;48.748;19.142;2023-04-06T03:48:20;33.96;30.00;43.49;;
72805;Laerm;60920;48.748;19.142;2023-04-06T03:50:46;33.11;29.75;42.06;;
72805;Laerm;60920;48.748;19.142;2023-04-06T03:53:11;34.45;29.51;44.43;;
72805;Laerm;60920;48.748;19.142;2023-04-06T03:55:36;34.24;30.45;43.74;;
72805;Laerm;60920;48.748;19.142;2023-04-06T03:58:02;32.40;28.78;40.84;;
72805;Laerm;60920;48.748;19.142;2023-04-06T04:00:27;33.29;28.34;40.23;;
72805;Laerm;60920;48.748;19.142;2023-04-06T04:02:53;33.47;28.82;42.33;;
72805;Laerm;60920;48.748;19.142;2023-04-06T04:05:19;34.22;29.49;41.84;;
72805;Laerm;60920;48.748;19.142;2023-04-06T04:07:44;35.27;28.72;50.70;;
72805;Laerm;60920;48.748;19.142;2023-04-06T04:10:10;33.94;29.21;44.57;;
72805;Laerm;60920;48.748;19.142;2023-04-06T04:12:35;33.20;28.59;46.26;;
72805;Laerm;60920;48.748;19.142;2023-04-06T04:15:01;32.59;28.95;38.44;;
72805;Laerm;60920;48.748;19.142;2023-04-06T04:17:28;33.42;28.58;40.54;;
72805;Laerm;60920;48.748;19.142;2023-04-06T04:19:53;34.31;30.46;40.23;;
72805;Laerm;60920;48.748;19.142;2023-04-06T04:22:19;32.70;28.78;39.19;;
72805;Laerm;60920;48.748;19.142;2023-04-06T04:24:44;33.75;29.38;40.05;;
72805;Laerm;60920;48.748;19.142;2023-04-06T04:27:10;34.37;28.83;40.56;;
72805;Laerm;60920;48.748;19.142;2023-04-06T04:29:35;34.06;29.58;40.65;;
72805;Laerm;60920;48.748;19.142;2023-04-06T04:32:01;33.61;30.29;38.38;;
72805;Laerm;60920;48.748;19.142;2023-04-06T04:34:26;34.52;30.79;41.08;;
72805;Laerm;60920;48.748;19.142;2023-04-06T04:36:52;35.40;31.09;41.57;;
72805;Laerm;60920;48.748;19.142;2023-04-06T04:39:17;35.71;31.63;45.43;;
72805;Laerm;60920;48.748;19.142;2023-04-06T04:41:43;35.86;31.46;45.17;;
72805;Laerm;60920;48.748;19.142;2023-04-06T04:44:09;35.45;31.65;42.74;;
72805;Laerm;60920;48.748;19.142;2023-04-06T04:46:34;35.68;31.11;44.47;;
72805;Laerm;60920;48.748;19.142;2023-04-06T04:48:59;35.53;31.07;41.24;;
72805;Laerm;60920;48.748;19.142;2023-04-06T04:51:25;36.69;32.68;42.11;;
72805;Laerm;60920;48.748;19.142;2023-04-06T04:53:50;36.61;31.68;44.15;;
72805;Laerm;60920;48.748;19.142;2023-04-06T04:56:16;36.32;31.98;44.51;;
72805;Laerm;60920;48.748;19.142;2023-04-06T04:58:41;35.60;31.16;43.28;;
72805;Laerm;60920;48.748;19.142;2023-04-06T05:01:07;36.53;30.37;45.13;;
72805;Laerm;60920;48.748;19.142;2023-04-06T05:03:33;35.94;30.29;45.16;;
72805;Laerm;60920;48.748;19.142;2023-04-06T05:05:58;34.79;30.63;42.49;;
72805;Laerm;60920;48.748;19.142;2023-04-06T05:08:23;35.19;31.25;40.03;;
72805;Laerm;60920;48.748;19.142;2023-04-06T05:10:49;35.17;29.92;43.51;;
72805;Laerm;60920;48.748;19.142;2023-04-06T05:13:14;35.47;29.84;50.59;;
72805;Laerm;60920;48.748;19.142;2023-04-06T05:15:40;35.59;31.28;43.42;;
72805;Laerm;60920;48.748;19.142;2023-04-06T05:18:08;35.41;31.02;40.20;;
72805;Laerm;60920;48.748;19.142;2023-04-06T05:20:34;34.30;30.94;38.53;;
72805;Laerm;60920;48.748;19.142;2023-04-06T05:23:00;34.54;30.13;42.32;;
72805;Laerm;60920;48.748;19.142;2023-04-06T05:25:28;36.17;32.17;45.85;;
72805;Laerm;60920;48.748;19.142;2023-04-06T05:27:53;35.52;29.92;44.83;;
72805;Laerm;60920;48.748;19.142;2023-04-06T05:30:19;35.13;29.97;45.63;;
72805;Laerm;60920;48.748;19.142;2023-04-06T05:32:47;36.02;31.06;45.13;;
72805;Laerm;60920;48.748;19.142;2023-04-06T05:35:12;35.57;30.79;44.44;;
72805;Laerm;60920;48.748;19.142;2023-04-06T05:37:38;36.55;32.68;42.19;;
72805;Laerm;60920;48.748;19.142;2023-04-06T05:40:04;44.98;31.26;60.26;;
72805;Laerm;60920;48.748;19.142;2023-04-06T05:42:39;34.58;30.32;39.34;;
72805;Laerm;60920;48.748;19.142;2023-04-06T05:45:08;35.64;30.65;42.71;;
72805;Laerm;60920;48.748;19.142;2023-04-06T05:47:34;35.43;31.75;44.22;;
72805;Laerm;60920;48.748;19.142;2023-04-06T05:49:59;35.49;31.33;40.90;;
72805;Laerm;60920;48.748;19.142;2023-04-06T05:52:24;36.32;32.27;42.06;;
72805;Laerm;60920;48.748;19.142;2023-04-06T05:54:50;35.41;30.20;49.00;;
72805;Laerm;60920;48.748;19.142;2023-04-06T05:57:15;35.09;31.58;41.54;;
72805;Laerm;60920;48.748;19.142;2023-04-06T05:59:44;35.66;30.84;41.82;;
72805;Laerm;60920;48.748;19.142;2023-04-06T06:02:09;34.66;31.09;37.96;;
72805;Laerm;60920;48.748;19.142;2023-04-06T06:04:35;34.54;30.83;42.52;;
72805;Laerm;60920;48.748;19.142;2023-04-06T06:07:00;35.30;30.88;51.08;;
72805;Laerm;60920;48.748;19.142;2023-04-06T06:09:26;35.13;29.96;45.74;;
72805;Laerm;60920;48.748;19.142;2023-04-06T06:11:51;35.66;31.42;39.72;;
72805;Laerm;60920;48.748;19.142;2023-04-06T06:14:16;36.62;30.96;49.95;;
72805;Laerm;60920;48.748;19.142;2023-04-06T06:16:42;34.07;29.75;39.34;;
72805;Laerm;60920;48.748;19.142;2023-04-06T06:19:07;34.74;30.81;43.86;;
72805;Laerm;60920;48.748;19.142;2023-04-06T06:21:32;34.15;30.05;40.32;;
72805;Laerm;60920;48.748;19.142;2023-04-06T06:23:58;35.74;31.49;43.45;;
72805;Laerm;60920;48.748;19.142;2023-04-06T06:26:23;35.15;31.32;42.49;;
72805;Laerm;60920;48.748;19.142;2023-04-06T06:28:49;34.91;29.99;42.43;;
72805;Laerm;60920;48.748;19.142;2023-04-06T06:31:14;34.68;30.89;43.34;;
72805;Laerm;60920;48.748;19.142;2023-04-06T06:33:40;35.90;31.02;43.34;;
72805;Laerm;60920;48.748;19.142;2023-04-06T06:36:05;34.52;30.88;47.41;;
72805;Laerm;60920;48.748;19.142;2023-04-06T06:38:30;35.45;31.37;47.05;;
72805;Laerm;60920;48.748;19.142;2023-04-06T06:40:56;35.05;29.86;50.06;;
72805;Laerm;60920;48.748;19.142;2023-04-06T06:43:21;34.59;29.83;43.85;;
72805;Laerm;60920;48.748;19.142;2023-04-06T06:45:46;35.79;31.48;43.42;;
72805;Laerm;60920;48.748;19.142;2023-04-06T06:48:12;34.64;30.27;42.13;;
72805;Laerm;60920;48.748;19.142;2023-04-06T06:50:37;35.66;29.76;55.04;;
72805;Laerm;60920;48.748;19.142;2023-04-06T06:53:03;34.90;30.91;43.05;;
72805;Laerm;60920;48.748;19.142;2023-04-06T06:55:28;36.24;30.63;54.19;;
72805;Laerm;60920;48.748;19.142;2023-04-06T06:57:53;34.13;30.34;42.82;;
72805;Laerm;60920;48.748;19.142;2023-04-06T07:00:19;34.62;29.24;43.06;;
72805;Laerm;60920;48.748;19.142;2023-04-06T07:02:46;34.79;29.22;44.36;;
72805;Laerm;60920;48.748;19.142;2023-04-06T07:05:11;34.89;31.08;40.06;;
72805;Laerm;60920;48.748;19.142;2023-04-06T07:07:37;34.72;31.09;40.39;;
72805;Laerm;60920;48.748;19.142;2023-04-06T07:10:02;35.44;30.88;41.92;;
72805;Laerm;60920;48.748;19.142;2023-04-06T07:12:28;35.32;30.01;44.91;;
72805;Laerm;60920;48.748;19.142;2023-04-06T07:14:53;34.61;30.21;42.80;;
72805;Laerm;60920;48.748;19.142;2023-04-06T07:17:19;35.51;31.10;43.58;;
72805;Laerm;60920;48.748;19.142;2023-04-06T07:19:47;34.62;30.62;41.34;;
72805;Laerm;60920;48.748;19.142;2023-04-06T07:22:12;34.87;29.62;40.66;;
72805;Laerm;60920;48.748;19.142;2023-04-06T07:24:38;35.45;30.05;44.32;;
72805;Laerm;60920;48.748;19.142;2023-04-06T07:27:03;34.66;29.54;42.55;;
72805;Laerm;60920;48.748;19.142;2023-04-06T07:29:28;33.97;29.34;42.20;;
72805;Laerm;60920;48.748;19.142;2023-04-06T07:31:54;35.02;29.96;46.54;;
72805;Laerm;60920;48.748;19.142;2023-04-06T07:34:20;34.78;29.68;45.59;;
72805;Laerm;60920;48.748;19.142;2023-04-06T07:36:45;33.82;28.90;40.22;;
72805;Laerm;60920;48.748;19.142;2023-04-06T07:39:10;33.85;29.45;40.08;;
72805;Laerm;60920;48.748;19.142;2023-04-06T07:41:36;34.75;29.66;41.62;;
72805;Laerm;60920;48.748;19.142;2023-04-06T07:44:01;33.53;30.08;39.06;;
72805;Laerm;60920;48.748;19.142;2023-04-06T07:46:27;34.98;30.01;42.06;;
72805;Laerm;60920;48.748;19.142;2023-04-06T07:48:52;34.12;28.74;41.14;;
72805;Laerm;60920;48.748;19.142;2023-04-06T07:51:17;34.44;29.59;42.80;;
72805;Laerm;60920;48.748;19.142;2023-04-06T07:53:46;34.92;29.53;44.35;;
72805;Laerm;60920;48.748;19.142;2023-04-06T07:56:11;35.01;31.30;43.74;;
72805;Laerm;60920;48.748;19.142;2023-04-06T07:58:40;34.39;29.23;46.82;;
72805;Laerm;60920;48.748;19.142;2023-04-06T08:01:06;37.38;29.58;56.31;;
72805;Laerm;60920;48.748;19.142;2023-04-06T08:03:33;36.87;31.38;56.00;;
72805;Laerm;60920;48.748;19.142;2023-04-06T08:05:58;35.73;30.78;48.47;;
72805;Laerm;60920;48.748;19.142;2023-04-06T08:08:23;35.06;31.03;42.51;;
72805;Laerm;60920;48.748;19.142;2023-04-06T08:10:49;36.59;30.24;53.05;;
72805;Laerm;60920;48.748;19.142;2023-04-06T08:13:14;34.72;30.10;47.59;;
72805;Laerm;60920;48.748;19.142;2023-04-06T08:15:40;35.46;31.21;50.13;;
72805;Laerm;60920;48.748;19.142;2023-04-06T08:18:06;34.87;29.95;45.35;;
72805;Laerm;60920;48.748;19.142;2023-04-06T08:20:31;35.85;30.77;46.12;;
72805;Laerm;60920;48.748;19.142;2023-04-06T08:22:57;35.45;31.81;40.59;;
72805;Laerm;60920;48.748;19.142;2023-04-06T08:25:22;34.92;29.80;42.93;;
72805;Laerm;60920;48.748;19.142;2023-04-06T08:27:47;36.22;31.40;41.81;;
72805;Laerm;60920;48.748;19.142;2023-04-06T08:30:13;35.16;31.69;40.77;;
72805;Laerm;60920;48.748;19.142;2023-04-06T08:32:40;35.62;30.49;43.76;;
72805;Laerm;60920;48.748;19.142;2023-04-06T08:35:06;35.99;31.84;46.90;;
72805;Laerm;60920;48.748;19.142;2023-04-06T08:37:32;36.13;32.00;44.04;;
72805;Laerm;60920;48.748;19.142;2023-04-06T08:39:58;36.68;31.87;42.74;;
72805;Laerm;60920;48.748;19.142;2023-04-06T08:42:24;35.86;31.13;44.13;;
72805;Laerm;60920;48.748;19.142;2023-04-06T08:44:51;35.48;31.33;40.57;;
72805;Laerm;60920;48.748;19.142;2023-04-06T08:47:17;36.15;31.44;49.14;;
72805;Laerm;60920;48.748;19.142;2023-04-06T08:49:42;35.21;31.12;42.73;;
72805;Laerm;60920;48.748;19.142;2023-04-06T08:52:09;36.14;30.25;46.56;;
72805;Laerm;60920;48.748;19.142;2023-04-06T08:54:35;35.89;30.71;42.76;;
72805;Laerm;60920;48.748;19.142;2023-04-06T08:57:01;35.34;30.93;43.68;;
72805;Laerm;60920;48.748;19.142;2023-04-06T08:59:28;35.33;31.07;46.82;;
72805;Laerm;60920;48.748;19.142;2023-04-06T09:01:55;35.64;30.30;51.64;;
72805;Laerm;60920;48.748;19.142;2023-04-06T09:04:21;40.99;31.01;63.69;;
72805;Laerm;60920;48.748;19.142;2023-04-06T09:06:46;35.61;30.59;44.60;;
72805;Laerm;60920;48.748;19.142;2023-04-06T09:09:12;35.94;31.42;42.07;;
72805;Laerm;60920;48.748;19.142;2023-04-06T09:11:45;34.75;28.95;43.71;;
72805;Laerm;60920;48.748;19.142;2023-04-06T09:14:10;35.43;32.38;39.73;;
72805;Laerm;60920;48.748;19.142;2023-04-06T09:16:40;38.09;31.91;46.51;;
72805;Laerm;60920;48.748;19.142;2023-04-06T09:19:06;35.61;31.62;41.48;;
72805;Laerm;60920;48.748;19.142;2023-04-06T09:21:32;35.62;29.75;44.80;;
72805;Laerm;60920;48.748;19.142;2023-04-06T09:24:01;34.99;30.44;42.69;;
72805;Laerm;60920;48.748;19.142;2023-04-06T09:26:27;36.14;31.47;45.17;;
72805;Laerm;60920;48.748;19.142;2023-04-06T09:28:53;38.43;32.36;59.10;;
72805;Laerm;60920;48.748;19.142;2023-04-06T09:31:22;35.86;31.22;46.21;;
72805;Laerm;60920;48.748;19.142;2023-04-06T09:33:48;35.73;31.78;40.65;;
72805;Laerm;60920;48.748;19.142;2023-04-06T09:36:14;34.73;30.11;40.43;;
72805;Laerm;60920;48.748;19.142;2023-04-06T09:38:57;38.10;33.04;51.23;;
72805;Laerm;60920;48.748;19.142;2023-04-06T09:41:26;37.51;31.84;51.16;;
72805;Laerm;60920;48.748;19.142;2023-04-06T09:44:01;36.03;31.64;45.81;;
72805;Laerm;60920;48.748;19.142;2023-04-06T09:46:27;36.38;32.35;44.42;;
72805;Laerm;60920;48.748;19.142;2023-04-06T09:48:54;37.55;33.70;44.22;;
72805;Laerm;60920;48.748;19.142;2023-04-06T09:51:19;36.02;32.04;40.51;;
72805;Laerm;60920;48.748;19.142;2023-04-06T09:53:45;36.19;31.87;42.36;;
72805;Laerm;60920;48.748;19.142;2023-04-06T09:56:13;36.64;32.59;43.75;;
72805;Laerm;60920;48.748;19.142;2023-04-06T09:58:42;36.94;31.71;51.98;;
72805;Laerm;60920;48.748;19.142;2023-04-06T10:01:17;36.39;31.83;44.26;;
72805;Laerm;60920;48.748;19.142;2023-04-06T10:06:31;36.42;31.70;45.58;;
72805;Laerm;60920;48.748;19.142;2023-04-06T10:08:58;37.03;32.78;42.00;;
72805;Laerm;60920;48.748;19.142;2023-04-06T10:11:24;35.13;31.42;39.29;;
72805;Laerm;60920;48.748;19.142;2023-04-06T10:13:50;35.71;31.31;55.09;;
72805;Laerm;60920;48.748;19.142;2023-04-06T10:16:15;37.03;33.10;42.74;;
72805;Laerm;60920;48.748;19.142;2023-04-06T10:18:43;35.97;31.03;44.08;;
72805;Laerm;60920;48.748;19.142;2023-04-06T10:21:11;36.35;32.12;42.89;;
72805;Laerm;60920;48.748;19.142;2023-04-06T10:26:16;36.04;32.31;42.34;;
72805;Laerm;60920;48.748;19.142;2023-04-06T10:28:42;37.27;29.88;55.22;;
72805;Laerm;60920;48.748;19.142;2023-04-06T10:31:10;34.82;31.02;41.53;;
72805;Laerm;60920;48.748;19.142;2023-04-06T10:33:36;36.83;32.28;44.67;;
72805;Laerm;60920;48.748;19.142;2023-04-06T10:36:11;36.91;32.68;42.75;;
72805;Laerm;60920;48.748;19.142;2023-04-06T10:38:40;37.60;33.08;45.46;;
72805;Laerm;60920;48.748;19.142;2023-04-06T10:41:06;36.98;31.92;45.65;;
72805;Laerm;60920;48.748;19.142;2023-04-06T10:43:39;35.88;32.29;41.82;;
72805;Laerm;60920;48.748;19.142;2023-04-06T10:46:05;36.29;32.21;44.49;;
72805;Laerm;60920;48.748;19.142;2023-04-06T10:48:41;35.74;31.31;43.62;;
72805;Laerm;60920;48.748;19.142;2023-04-06T10:51:10;36.68;30.26;46.39;;
72805;Laerm;60920;48.748;19.142;2023-04-06T10:53:36;36.06;31.67;40.71;;
72805;Laerm;60920;48.748;19.142;2023-04-06T10:56:01;35.79;31.51;41.67;;
72805;Laerm;60920;48.748;19.142;2023-04-06T10:58:27;37.94;32.82;47.02;;
72805;Laerm;60920;48.748;19.142;2023-04-06T11:00:53;36.48;30.34;43.69;;
72805;Laerm;60920;48.748;19.142;2023-04-06T11:03:18;34.96;31.43;43.10;;
72805;Laerm;60920;48.748;19.142;2023-04-06T11:05:48;35.46;31.67;40.89;;
72805;Laerm;60920;48.748;19.142;2023-04-06T11:10:48;36.34;31.40;44.19;;
72805;Laerm;60920;48.748;19.142;2023-04-06T11:13:14;36.55;31.61;45.10;;
72805;Laerm;60920;48.748;19.142;2023-04-06T11:15:40;35.91;31.08;39.65;;
72805;Laerm;60920;48.748;19.142;2023-04-06T11:18:06;36.74;31.87;52.39;;
72805;Laerm;60920;48.748;19.142;2023-04-06T11:20:31;35.75;31.40;44.02;;
72805;Laerm;60920;48.748;19.142;2023-04-06T11:22:56;36.54;31.67;45.01;;
72805;Laerm;60920;48.748;19.142;2023-04-06T11:25:24;35.27;31.81;40.45;;
72805;Laerm;60920;48.748;19.142;2023-04-06T11:27:51;36.13;32.21;43.69;;
72805;Laerm;60920;48.748;19.142;2023-04-06T11:30:16;35.05;29.02;42.00;;
72805;Laerm;60920;48.748;19.142;2023-04-06T11:32:43;37.64;31.37;46.84;;
72805;Laerm;60920;48.748;19.142;2023-04-06T11:35:22;36.04;32.33;39.45;;
72805;Laerm;60920;48.748;19.142;2023-04-06T11:37:50;36.45;32.55;41.59;;
72805;Laerm;60920;48.748;19.142;2023-04-06T11:40:20;36.05;31.57;41.64;;
72805;Laerm;60920;48.748;19.142;2023-04-06T11:42:51;36.27;32.49;43.55;;
72805;Laerm;60920;48.748;19.142;2023-04-06T11:45:17;36.88;32.35;44.39;;
72805;Laerm;60920;48.748;19.142;2023-04-06T11:47:42;36.85;33.03;42.91;;
72805;Laerm;60920;48.748;19.142;2023-04-06T11:50:08;36.51;32.76;41.13;;
72805;Laerm;60920;48.748;19.142;2023-04-06T11:52:34;37.40;32.00;44.34;;
72805;Laerm;60920;48.748;19.142;2023-04-06T11:55:09;37.54;31.85;54.03;;
72805;Laerm;60920;48.748;19.142;2023-04-06T11:57:35;37.29;32.85;43.38;;
72805;Laerm;60920;48.748;19.142;2023-04-06T12:00:00;37.56;32.91;44.97;;
72805;Laerm;60920;48.748;19.142;2023-04-06T12:02:26;36.88;32.09;44.34;;
72805;Laerm;60920;48.748;19.142;2023-04-06T12:04:51;37.31;32.87;46.85;;
72805;Laerm;60920;48.748;19.142;2023-04-06T12:07:16;37.19;32.71;43.60;;
72805;Laerm;60920;48.748;19.142;2023-04-06T12:09:42;37.02;33.31;41.72;;
72805;Laerm;60920;48.748;19.142;2023-04-06T12:12:08;37.37;32.49;44.69;;
72805;Laerm;60920;48.748;19.142;2023-04-06T12:14:34;37.11;33.09;47.47;;
72805;Laerm;60920;48.748;19.142;2023-04-06T12:17:00;37.45;33.95;42.11;;
72805;Laerm;60920;48.748;19.142;2023-04-06T12:19:25;37.34;32.54;41.64;;
72805;Laerm;60920;48.748;19.142;2023-04-06T12:21:54;37.04;32.84;42.61;;
72805;Laerm;60920;48.748;19.142;2023-04-06T12:24:20;37.20;32.70;43.98;;
72805;Laerm;60920;48.748;19.142;2023-04-06T12:26:45;37.01;32.78;40.91;;
72805;Laerm;60920;48.748;19.142;2023-04-06T12:29:11;36.60;32.86;40.74;;
72805;Laerm;60920;48.748;19.142;2023-04-06T12:31:38;37.25;33.16;44.77;;
72805;Laerm;60920;48.748;19.142;2023-04-06T12:34:05;37.91;34.11;44.61;;
72805;Laerm;60920;48.748;19.142;2023-04-06T12:36:31;36.66;33.31;42.17;;
72805;Laerm;60920;48.748;19.142;2023-04-06T12:38:57;37.67;33.64;46.72;;
72805;Laerm;60920;48.748;19.142;2023-04-06T12:41:22;38.20;34.53;47.58;;
72805;Laerm;60920;48.748;19.142;2023-04-06T12:43:51;37.85;33.92;44.68;;
72805;Laerm;60920;48.748;19.142;2023-04-06T12:46:16;37.71;32.47;49.69;;
72805;Laerm;60920;48.748;19.142;2023-04-06T12:48:42;38.58;33.61;63.31;;
72805;Laerm;60920;48.748;19.142;2023-04-06T12:51:07;36.43;32.63;40.73;;
72805;Laerm;60920;48.748;19.142;2023-04-06T12:53:33;39.29;35.17;45.34;;
72805;Laerm;60920;48.748;19.142;2023-04-06T12:55:58;36.95;32.85;42.93;;
72805;Laerm;60920;48.748;19.142;2023-04-06T12:58:24;37.18;32.14;42.32;;
72805;Laerm;60920;48.748;19.142;2023-04-06T13:00:54;38.72;32.98;47.96;;
72805;Laerm;60920;48.748;19.142;2023-04-06T13:03:20;37.45;33.82;51.30;;
72805;Laerm;60920;48.748;19.142;2023-04-06T13:05:46;39.29;35.09;44.81;;
72805;Laerm;60920;48.748;19.142;2023-04-06T13:08:12;38.04;33.91;46.07;;
72805;Laerm;60920;48.748;19.142;2023-04-06T13:10:38;37.60;33.71;44.69;;
72805;Laerm;60920;48.748;19.142;2023-04-06T13:13:03;36.85;32.91;41.29;;
72805;Laerm;60920;48.748;19.142;2023-04-06T13:15:29;37.58;33.45;41.82;;
72805;Laerm;60920;48.748;19.142;2023-04-06T13:17:54;37.96;34.09;45.10;;
72805;Laerm;60920;48.748;19.142;2023-04-06T13:20:20;37.45;33.76;41.55;;
72805;Laerm;60920;48.748;19.142;2023-04-06T13:22:45;36.79;33.53;40.62;;
72805;Laerm;60920;48.748;19.142;2023-04-06T13:25:11;37.37;34.18;42.61;;
72805;Laerm;60920;48.748;19.142;2023-04-06T13:27:36;37.55;34.09;43.07;;
72805;Laerm;60920;48.748;19.142;2023-04-06T13:30:02;37.05;32.66;42.23;;
72805;Laerm;60920;48.748;19.142;2023-04-06T13:32:28;37.44;33.62;43.45;;
72805;Laerm;60920;48.748;19.142;2023-04-06T13:34:54;37.16;33.14;41.65;;